Terminal Aerodrome Forecast
Issued by NWS Huntsville, AL

Home | Current Version | Previous Version | Text Only | Print | Product List | Glossary On
Versions: 1 2 3 4 5 6 7 8 9 10 11 12 13 14 15 16 17 18 19 20 21 22 23 24 25 26 27 28 29 30 31 32 33 34 35 36 37 38 39 40
000
FTUS44 KHUN 182320
TAFMSL
TAF
KMSL 182320Z 1900/1924 VRB04KT P6SM BKN050
     FM190800 11004KT 6SM -RA BKN030 OVC050
     FM191000 09004KT 4SM -RA BR OVC015
     FM191200 13005KT 4SM -RA BR OVC010
     FM191600 17009KT 3SM -RA OVC009
      TEMPO 1919/1923 3SM -TSRA OVC015CB=

USA.gov is the U.S. government's official web portal to all federal, state and local government web resources and services.